Time;durP1;ratioP1;P1;durP2;ratioP2;P2;SDS_P1;SDS_P2;PMS_P1;PMS_P2;Temp;Humidity;BMP_temperature;BMP_pressure;BME280_temperature;BME280_humidity;BME280_pressure;Samples;Min_cycle;Max_cycle;Signal;HPM_P1;HPM_P2
2023/04/14 00:00:25;;;;;;;9.43;4.27;;;5.60;2.30;;;;;;5000673;28;20232;-76
2023/04/14 00:02:51;;;;;;;5.83;3.70;;;5.70;3.10;;;;;;4997752;28;20189;-77
2023/04/14 00:05:17;;;;;;;8.50;4.13;;;5.70;1.50;;;;;;5002288;28;20727;-76
2023/04/14 00:07:42;;;;;;;7.73;4.30;;;5.70;5.00;;;;;;4997495;28;20194;-76
2023/04/14 00:10:08;;;;;;;8.13;4.10;;;5.90;2.20;;;;;;4992857;28;20190;-77
2023/04/14 00:12:34;;;;;;;9.33;3.90;;;5.60;2.70;;;;;;4987084;28;20195;-76
2023/04/14 00:14:59;;;;;;;7.87;4.23;;;6.90;1.90;;;;;;4981537;28;20249;-77
2023/04/14 00:17:25;;;;;;;6.53;4.50;;;5.50;4.20;;;;;;4988161;28;20218;-77
2023/04/14 00:19:51;;;;;;;7.03;4.33;;;5.40;1.00;;;;;;4987717;28;20175;-77
2023/04/14 00:22:17;;;;;;;7.13;4.17;;;5.40;2.30;;;;;;4985478;28;20190;-76
2023/04/14 00:24:42;;;;;;;8.07;4.50;;;5.30;1.00;;;;;;4987632;28;20176;-76
2023/04/14 00:27:09;;;;;;;8.57;4.83;;;5.60;3.40;;;;;;4987776;28;20430;-77
2023/04/14 00:29:37;;;;;;;5.70;4.00;;;5.30;4.70;;;;;;4986739;28;20179;-77
2023/04/14 00:32:03;;;;;;;6.10;4.20;;;5.20;4.60;;;;;;4986782;28;20525;-77
2023/04/14 00:34:29;;;;;;;8.00;4.00;;;5.30;2.00;;;;;;4986399;28;21163;-77
2023/04/14 00:36:54;;;;;;;5.60;4.20;;;5.20;3.40;;;;;;4986573;28;20553;-77
2023/04/14 00:39:20;;;;;;;10.80;4.17;;;5.20;1.00;;;;;;4987713;28;20194;-75
2023/04/14 00:41:46;;;;;;;6.50;4.17;;;5.10;1.00;;;;;;4988209;28;20815;-77
2023/04/14 00:44:11;;;;;;;5.57;3.90;;;5.10;1.00;;;;;;4986543;28;20270;-77
2023/04/14 00:46:39;;;;;;;6.70;4.40;;;5.40;1.00;;;;;;4986656;28;20211;-77
2023/04/14 00:49:05;;;;;;;6.97;4.60;;;5.00;5.90;;;;;;4990524;28;20194;-77
2023/04/14 00:51:32;;;;;;;5.90;4.33;;;5.10;6.00;;;;;;5002729;28;20437;-77
2023/04/14 00:53:58;;;;;;;5.20;3.60;;;5.10;5.50;;;;;;4989070;28;20446;-77
2023/04/14 00:56:25;;;;;;;6.80;4.00;;;5.10;4.70;;;;;;4988754;28;20821;-78
2023/04/14 00:58:51;;;;;;;7.70;4.10;;;5.00;1.00;;;;;;4992771;28;20465;-77
2023/04/14 01:01:16;;;;;;;9.63;4.10;;;4.90;1.00;;;;;;4988294;28;20454;-76
2023/04/14 01:03:42;;;;;;;6.23;3.60;;;5.20;2.70;;;;;;4989014;28;20481;-77
2023/04/14 01:06:08;;;;;;;7.10;3.80;;;4.90;1.10;;;;;;4982409;28;20573;-76
2023/04/14 01:08:34;;;;;;;7.20;4.47;;;4.90;1.80;;;;;;5002738;28;20458;-76
2023/04/14 01:11:21;;;;;;;5.60;3.80;;;4.90;1.00;;;;;;5000091;28;20277;-76
2023/04/14 01:14:03;;;;;;;7.20;4.10;;;4.80;1.00;;;;;;4992808;28;20816;-77
2023/04/14 01:16:32;;;;;;;6.77;4.00;;;4.70;1.00;;;;;;5001657;28;20476;-77
2023/04/14 01:19:31;;;;;;;7.40;3.83;;;4.90;1.00;;;;;;5003689;28;20526;-77
2023/04/14 01:22:05;;;;;;;5.33;3.80;;;4.40;1.00;;;;;;5004879;28;20503;-77
2023/04/14 01:24:55;;;;;;;8.63;3.67;;;4.10;1.00;;;;;;4991193;28;20445;-77
2023/04/14 01:27:48;;;;;;;7.00;4.23;;;4.20;1.00;;;;;;4994468;28;20852;-76
2023/04/14 01:30:49;;;;;;;6.10;4.20;;;4.10;1.00;;;;;;4984890;28;20434;-77
2023/04/14 01:33:21;;;;;;;7.37;4.03;;;4.10;1.00;;;;;;4988712;28;20885;-77
2023/04/14 01:35:57;;;;;;;7.53;4.60;;;4.10;1.00;;;;;;4998465;28;21005;-77
2023/04/14 01:38:26;;;;;;;10.63;4.60;;;4.60;1.00;;;;;;4990723;28;20584;-77
2023/04/14 01:40:55;;;;;;;4.90;3.80;;;4.10;1.00;;;;;;4998757;28;20422;-78
2023/04/14 01:43:25;;;;;;;9.10;4.73;;;4.00;1.00;;;;;;4988122;28;20470;-76
2023/04/14 01:45:55;;;;;;;8.33;4.47;;;4.00;1.00;;;;;;4999293;28;20527;-77
2023/04/14 01:48:23;;;;;;;6.40;4.00;;;4.30;1.00;;;;;;5005049;28;20449;-78
2023/04/14 01:50:48;;;;;;;6.70;4.23;;;4.00;1.00;;;;;;4993663;28;20557;-76
2023/04/14 01:53:16;;;;;;;8.13;4.30;;;3.90;1.00;;;;;;5006078;28;20528;-77
2023/04/14 01:55:43;;;;;;;6.87;4.50;;;4.00;2.40;;;;;;4993405;28;20208;-77
2023/04/14 01:58:11;;;;;;;8.37;4.87;;;4.00;2.70;;;;;;4986885;28;20463;-77
2023/04/14 02:00:39;;;;;;;7.00;5.37;;;4.00;3.60;;;;;;4995925;28;20437;-76
2023/04/14 02:03:05;;;;;;;9.93;4.67;;;4.00;4.30;;;;;;4994015;28;20963;-77
2023/04/14 02:05:34;;;;;;;6.23;4.20;;;4.10;7.70;;;;;;5008158;28;20551;-78
2023/04/14 02:08:01;;;;;;;9.67;4.50;;;4.10;5.70;;;;;;5008078;28;20522;-77
2023/04/14 02:10:28;;;;;;;6.00;4.20;;;4.10;3.50;;;;;;4992760;28;20442;-77
2023/04/14 02:12:56;;;;;;;5.93;4.20;;;4.40;5.50;;;;;;4989260;28;20468;-76
2023/04/14 02:15:24;;;;;;;7.43;4.33;;;4.10;4.00;;;;;;5003070;28;20457;-77
2023/04/14 02:17:51;;;;;;;5.33;4.20;;;4.50;8.40;;;;;;4992480;28;20465;-78
2023/04/14 02:20:20;;;;;;;7.93;4.60;;;4.10;3.70;;;;;;4995597;28;20914;-76
2023/04/14 02:22:45;;;;;;;9.83;3.53;;;4.20;3.70;;;;;;4994020;28;20801;-76
2023/04/14 02:25:11;;;;;;;7.67;4.20;;;4.00;3.40;;;;;;4998439;28;20458;-77
2023/04/14 02:27:55;;;;;;;7.67;4.10;;;3.90;1.00;;;;;;4991903;28;20191;-77
2023/04/14 02:30:28;;;;;;;4.50;3.40;;;3.80;1.00;;;;;;5005280;28;20191;-76
2023/04/14 02:33:03;;;;;;;7.03;3.90;;;3.80;1.00;;;;;;5003007;28;20438;-76
2023/04/14 02:35:36;;;;;;;4.33;3.60;;;3.90;1.00;;;;;;4994674;28;20457;-76
2023/04/14 02:38:09;;;;;;;6.20;3.70;;;3.40;1.00;;;;;;5002810;28;20965;-77
2023/04/14 02:40:39;;;;;;;6.47;4.20;;;3.40;4.00;;;;;;4990070;28;20444;-76
2023/04/14 02:43:25;;;;;;;6.63;3.83;;;3.50;2.30;;;;;;4997309;28;20438;-76
2023/04/14 02:45:53;;;;;;;4.60;3.80;;;3.40;2.10;;;;;;4997018;28;20458;-78
2023/04/14 02:48:22;;;;;;;5.23;3.67;;;3.40;5.10;;;;;;4994307;28;20437;-77
2023/04/14 02:50:50;;;;;;;5.77;3.70;;;3.90;6.10;;;;;;4998192;28;20437;-76
2023/04/14 02:53:20;;;;;;;5.70;3.80;;;4.10;5.20;;;;;;4995064;28;21054;-77
2023/04/14 02:55:48;;;;;;;5.20;3.67;;;4.00;4.90;;;;;;4999944;28;20442;-77
2023/04/14 02:58:14;;;;;;;5.33;3.60;;;3.50;3.20;;;;;;4992267;28;20456;-77
2023/04/14 03:00:40;;;;;;;11.63;3.87;;;;;;;;;;4998110;28;20440;-77
2023/04/14 03:03:07;;;;;;;10.30;4.33;;;3.50;1.00;;;;;;5000283;28;20430;-77
2023/04/14 03:05:34;;;;;;;7.03;4.30;;;3.50;1.80;;;;;;5008446;28;20449;-76
2023/04/14 03:08:02;;;;;;;10.30;4.43;;;3.50;1.40;;;;;;4993629;28;20517;-76
2023/04/14 03:10:28;;;;;;;7.80;4.80;;;3.60;2.20;;;;;;4998312;28;21016;-76
2023/04/14 03:12:57;;;;;;;5.03;4.50;;;4.00;4.50;;;;;;4989039;28;20751;-77
2023/04/14 03:15:24;;;;;;;6.03;4.13;;;3.50;1.30;;;;;;4995374;28;20576;-77
2023/04/14 03:17:54;;;;;;;9.57;4.83;;;3.50;4.10;;;;;;4995219;28;20557;-76
2023/04/14 03:20:22;;;;;;;7.93;4.50;;;3.50;2.70;;;;;;4995141;28;20452;-76
2023/04/14 03:23:05;;;;;;;6.87;4.53;;;3.50;1.00;;;;;;4997445;28;20453;-77
2023/04/14 03:25:34;;;;;;;7.20;4.37;;;3.40;2.40;;;;;;4986381;28;20902;-76
2023/04/14 03:28:02;;;;;;;8.10;4.30;;;3.40;4.30;;;;;;4999453;28;20923;-76
2023/04/14 03:30:33;;;;;;;6.70;3.97;;;3.40;4.30;;;;;;4997431;28;20477;-77
2023/04/14 03:33:03;;;;;;;5.73;4.40;;;3.50;4.20;;;;;;5006247;28;20771;-76
2023/04/14 03:35:29;;;;;;;6.47;4.10;;;3.40;5.90;;;;;;4998065;28;20528;-77
2023/04/14 03:37:58;;;;;;;6.20;4.53;;;3.40;6.30;;;;;;4987635;28;20466;-78
2023/04/14 03:40:29;;;;;;;7.13;4.50;;;3.40;5.20;;;;;;4990371;28;20442;-77
2023/04/14 03:42:57;;;;;;;7.27;4.50;;;3.40;9.60;;;;;;5004375;28;20430;-76
2023/04/14 03:45:24;;;;;;;6.47;4.37;;;3.40;4.90;;;;;;4999205;28;20827;-77
2023/04/14 03:47:54;;;;;;;6.40;4.50;;;3.30;4.20;;;;;;5003630;28;20437;-76
2023/04/14 03:50:22;;;;;;;7.77;4.10;;;3.30;2.80;;;;;;4992751;28;20441;-76
2023/04/14 03:52:49;;;;;;;10.60;4.17;;;3.30;6.10;;;;;;4989793;28;21184;-77
2023/04/14 03:55:17;;;;;;;6.67;4.37;;;3.80;5.40;;;;;;4988088;28;20494;-77
2023/04/14 03:57:45;;;;;;;7.67;4.37;;;3.30;5.50;;;;;;4993208;28;21009;-76
2023/04/14 04:00:12;;;;;;;6.97;4.40;;;3.30;4.80;;;;;;4994445;28;20427;-77
2023/04/14 04:02:39;;;;;;;7.77;4.57;;;3.30;7.40;;;;;;4992246;28;21024;-77
2023/04/14 04:05:06;;;;;;;6.63;4.43;;;3.20;7.30;;;;;;5005140;28;20544;-77
2023/04/14 04:07:33;;;;;;;8.50;5.10;;;3.20;6.60;;;;;;4999594;28;20441;-77
2023/04/14 04:10:01;;;;;;;7.50;5.17;;;3.20;8.50;;;;;;4990894;28;20441;-77
2023/04/14 04:12:27;;;;;;;10.93;4.87;;;3.40;7.50;;;;;;4994794;28;20657;-77
2023/04/14 04:14:53;;;;;;;8.30;4.63;;;3.20;9.20;;;;;;4997640;28;20546;-76
2023/04/14 04:17:21;;;;;;;7.80;4.30;;;3.20;9.30;;;;;;4994601;28;20457;-77
2023/04/14 04:19:49;;;;;;;9.90;5.30;;;3.40;8.50;;;;;;4997290;28;20489;-76
2023/04/14 04:22:18;;;;;;;9.03;5.50;;;3.30;9.40;;;;;;5001859;28;20543;-76
2023/04/14 04:24:44;;;;;;;12.13;6.33;;;3.20;8.70;;;;;;4997241;28;20805;-76
2023/04/14 04:27:10;;;;;;;31.53;13.37;;;3.20;9.70;;;;;;4984028;28;20465;-76
2023/04/14 04:29:37;;;;;;;89.47;40.23;;;3.20;7.30;;;;;;4993668;28;20472;-76
2023/04/14 04:32:05;;;;;;;24.13;13.50;;;3.60;8.20;;;;;;4993792;28;20183;-77
2023/04/14 04:34:31;;;;;;;15.90;9.03;;;3.00;4.40;;;;;;4989828;28;20446;-76
2023/04/14 04:37:00;;;;;;;14.13;7.60;;;3.00;6.40;;;;;;4986700;28;20458;-76
2023/04/14 04:39:25;;;;;;;10.73;6.50;;;3.40;8.40;;;;;;4992141;28;20421;-75
2023/04/14 04:42:03;;;;;;;8.57;5.17;;;3.20;8.10;;;;;;4998201;28;20421;-76
2023/04/14 04:44:31;;;;;;;7.97;5.20;;;3.00;6.30;;;;;;5004073;28;20240;-77
2023/04/14 04:46:57;;;;;;;7.93;5.20;;;3.10;7.80;;;;;;4997999;28;20438;-77
2023/04/14 04:49:22;;;;;;;9.50;5.30;;;3.30;7.40;;;;;;4995748;28;20604;-76
2023/04/14 04:51:48;;;;;;;11.47;5.93;;;3.10;7.30;;;;;;5008933;28;20186;-75
2023/04/14 04:54:14;;;;;;;7.80;4.90;;;3.10;4.60;;;;;;4993712;28;20264;-76
2023/04/14 04:56:40;;;;;;;6.50;4.83;;;3.10;1.80;;;;;;4999626;28;20623;-76
2023/04/14 04:59:06;;;;;;;6.50;5.00;;;3.20;2.00;;;;;;5002221;28;20429;-77
2023/04/14 05:01:32;;;;;;;14.87;7.87;;;3.10;1.30;;;;;;5004778;28;20214;-76
2023/04/14 05:03:57;;;;;;;8.87;5.17;;;3.50;1.00;;;;;;5008513;28;20828;-76
2023/04/14 05:06:23;;;;;;;9.23;6.37;;;3.10;1.00;;;;;;4994045;28;20276;-76
2023/04/14 05:08:52;;;;;;;9.60;5.40;;;3.20;1.00;;;;;;4992245;28;20183;-76
2023/04/14 05:11:18;;;;;;;12.20;5.03;;;3.10;1.00;;;;;;5000884;28;20257;-76
2023/04/14 05:13:43;;;;;;;9.63;5.60;;;2.50;1.00;;;;;;5000156;28;21055;-76
2023/04/14 05:16:10;;;;;;;10.10;5.43;;;3.10;1.00;;;;;;5003643;28;20209;-76
2023/04/14 05:18:36;;;;;;;11.50;5.33;;;3.50;2.20;;;;;;5007330;28;20564;-76
2023/04/14 05:21:02;;;;;;;8.70;5.60;;;3.30;1.00;;;;;;5005025;28;20434;-77
2023/04/14 05:23:28;;;;;;;12.23;5.70;;;1.50;1.00;;;;;;4990016;28;20195;-76
2023/04/14 05:25:57;;;;;;;9.53;5.63;;;3.30;1.00;;;;;;4985679;28;20590;-76
2023/04/14 05:28:23;;;;;;;12.33;5.83;;;3.40;1.00;;;;;;4993573;28;20522;-77
2023/04/14 05:30:49;;;;;;;9.83;6.00;;;3.30;1.00;;;;;;4998427;28;20975;-76
2023/04/14 05:33:14;;;;;;;11.67;5.80;;;3.90;1.00;;;;;;4990809;28;20683;-76
2023/04/14 05:35:40;;;;;;;8.87;5.97;;;3.70;1.00;;;;;;5006702;28;20580;-76
2023/04/14 05:38:06;;;;;;;10.23;5.83;;;3.90;1.00;;;;;;4991711;28;20649;-76
2023/04/14 05:40:32;;;;;;;9.93;5.53;;;3.70;1.00;;;;;;4990758;28;20513;-77
2023/04/14 05:42:57;;;;;;;8.23;5.80;;;4.20;1.00;;;;;;5006110;28;20198;-75
2023/04/14 05:45:24;;;;;;;9.90;5.70;;;3.90;1.10;;;;;;4989953;28;20634;-75
2023/04/14 05:47:49;;;;;;;7.97;5.87;;;4.30;1.00;;;;;;4990257;28;20585;-75
2023/04/14 05:50:15;;;;;;;11.47;6.30;;;4.20;1.00;;;;;;5006335;28;20458;-75
2023/04/14 05:52:41;;;;;;;7.33;5.60;;;4.30;1.00;;;;;;4991872;28;20719;-75
2023/04/14 05:55:07;;;;;;;20.33;9.33;;;4.40;2.80;;;;;;4990590;28;20245;-75
2023/04/14 05:57:32;;;;;;;21.40;9.57;;;4.60;5.30;;;;;;4989470;28;20203;-75
2023/04/14 05:59:58;;;;;;;19.50;10.97;;;4.80;5.00;;;;;;4996001;28;20186;-75
2023/04/14 06:02:23;;;;;;;14.57;7.60;;;4.90;5.00;;;;;;4995805;28;20214;-75
2023/04/14 06:04:49;;;;;;;10.10;6.20;;;5.20;1.00;;;;;;4991288;28;20198;-74
2023/04/14 06:07:15;;;;;;;11.53;5.97;;;5.80;3.20;;;;;;4983864;28;20271;-76
2023/04/14 06:09:41;;;;;;;10.17;5.30;;;5.40;1.00;;;;;;4985555;28;20673;-75
2023/04/14 06:12:07;;;;;;;11.83;5.47;;;5.60;1.00;;;;;;4985876;28;20880;-76
2023/04/14 06:14:33;;;;;;;10.30;4.57;;;6.00;1.00;;;;;;4988771;28;20450;-76
2023/04/14 06:16:58;;;;;;;18.93;5.37;;;6.00;1.00;;;;;;4989524;28;20471;-75
2023/04/14 06:19:24;;;;;;;7.70;4.93;;;6.10;1.00;;;;;;4989932;28;20608;-77
2023/04/14 06:21:50;;;;;;;10.33;5.20;;;6.20;1.00;;;;;;5005312;28;20258;-75
2023/04/14 06:24:19;;;;;;;10.40;4.80;;;6.20;1.00;;;;;;4985285;28;20786;-75
2023/04/14 06:26:45;;;;;;;10.63;4.97;;;6.30;1.00;;;;;;4988885;28;20516;-74
2023/04/14 06:29:10;;;;;;;10.33;4.90;;;6.60;1.00;;;;;;4995303;28;20438;-75
2023/04/14 06:31:36;;;;;;;8.90;5.00;;;6.40;1.00;;;;;;4989088;28;20963;-76
2023/04/14 06:34:02;;;;;;;8.97;4.60;;;6.60;1.00;;;;;;4987605;28;20190;-74
2023/04/14 06:36:27;;;;;;;9.00;4.87;;;6.80;1.00;;;;;;4988881;28;20214;-76
2023/04/14 06:38:53;;;;;;;8.37;4.40;;;6.90;1.00;;;;;;4991309;28;20637;-75
2023/04/14 06:41:19;;;;;;;14.00;4.60;;;7.00;1.00;;;;;;4989740;28;20682;-76
2023/04/14 06:43:45;;;;;;;11.47;4.60;;;7.10;1.00;;;;;;4991256;28;20254;-76
2023/04/14 06:46:11;;;;;;;9.60;4.80;;;7.20;1.00;;;;;;4988998;28;20705;-76
2023/04/14 06:48:36;;;;;;;12.37;5.40;;;7.50;1.00;;;;;;4991581;28;20847;-76
2023/04/14 06:51:02;;;;;;;7.70;4.50;;;7.70;1.00;;;;;;4991013;28;20973;-76
2023/04/14 06:53:28;;;;;;;8.30;4.30;;;7.90;1.00;;;;;;5006101;28;20183;-76
2023/04/14 06:55:59;;;;;;;7.93;4.37;;;8.10;1.00;;;;;;4990551;28;20203;-76
2023/04/14 06:58:29;;;;;;;8.47;4.67;;;8.30;1.00;;;;;;5006171;28;20221;-77
2023/04/14 07:00:59;;;;;;;8.87;4.00;;;8.40;1.00;;;;;;4990417;28;20433;-76
2023/04/14 07:03:25;;;;;;;14.90;4.40;;;8.50;1.00;;;;;;4991043;28;20991;-76
2023/04/14 07:05:51;;;;;;;12.37;4.63;;;8.40;1.00;;;;;;4989933;28;20443;-76
2023/04/14 07:08:18;;;;;;;6.13;4.00;;;8.30;1.00;;;;;;4990394;28;20434;-76
2023/04/14 07:10:44;;;;;;;9.60;4.07;;;8.40;1.00;;;;;;4989566;28;20896;-76
2023/04/14 07:13:10;;;;;;;13.43;3.70;;;8.50;1.00;;;;;;4984178;28;20501;-76
2023/04/14 07:15:35;;;;;;;12.53;4.20;;;8.40;1.00;;;;;;4990003;28;20214;-76
2023/04/14 07:18:01;;;;;;;9.93;3.73;;;8.70;1.00;;;;;;4988766;28;20209;-74
2023/04/14 07:20:28;;;;;;;8.47;3.90;;;9.00;1.00;;;;;;4988938;28;20195;-75
2023/04/14 07:22:54;;;;;;;9.10;4.60;;;9.30;1.00;;;;;;4985577;28;20187;-75
2023/04/14 07:25:20;;;;;;;7.63;3.77;;;9.40;1.00;;;;;;4989900;28;20442;-75
2023/04/14 07:27:45;;;;;;;8.90;4.30;;;9.50;1.00;;;;;;4990090;28;20477;-74
2023/04/14 07:30:11;;;;;;;5.17;3.10;;;9.60;1.00;;;;;;4989384;28;20601;-75
2023/04/14 07:32:37;;;;;;;7.73;3.50;;;9.80;1.00;;;;;;4988674;28;20282;-75
2023/04/14 07:35:03;;;;;;;9.77;3.50;;;10.10;1.00;;;;;;4988577;28;20591;-75
2023/04/14 07:37:29;;;;;;;11.20;3.53;;;10.70;1.00;;;;;;4995886;28;20199;-75
2023/04/14 07:39:55;;;;;;;4.87;3.37;;;11.70;1.00;;;;;;4987616;28;20508;-74
2023/04/14 07:42:20;;;;;;;10.40;3.50;;;13.10;1.00;;;;;;4991351;28;20794;-75
2023/04/14 07:44:46;;;;;;;8.60;3.57;;;14.30;1.00;;;;;;4989150;28;20195;-75
2023/04/14 07:47:11;;;;;;;9.53;3.57;;;15.60;1.00;;;;;;4996465;28;20198;-76
2023/04/14 07:49:37;;;;;;;10.40;4.37;;;16.60;1.00;;;;;;4987881;28;20183;-75
2023/04/14 07:52:03;;;;;;;7.80;4.27;;;17.50;1.00;;;;;;4988221;28;20753;-75
2023/04/14 07:54:30;;;;;;;10.37;4.60;;;18.70;1.00;;;;;;4986528;28;20190;-75
2023/04/14 07:56:56;;;;;;;8.17;4.33;;;18.70;1.00;;;;;;4987559;28;20712;-75
2023/04/14 07:59:22;;;;;;;9.60;3.87;;;19.10;1.00;;;;;;4989341;28;20477;-76
2023/04/14 08:01:47;;;;;;;9.43;4.73;;;19.40;1.00;;;;;;4988843;28;20461;-75
2023/04/14 08:04:13;;;;;;;7.47;3.93;;;19.80;1.00;;;;;;4989939;28;20557;-75
2023/04/14 08:06:39;;;;;;;7.73;4.13;;;20.00;1.00;;;;;;4988902;28;20256;-75
2023/04/14 08:09:04;;;;;;;9.23;4.60;;;20.40;1.00;;;;;;4987344;28;21492;-75
2023/04/14 08:11:30;;;;;;;8.77;4.77;;;20.70;1.00;;;;;;4989172;28;20193;-76
2023/04/14 08:13:55;;;;;;;8.77;4.40;;;21.00;1.00;;;;;;4988859;28;20187;-76
2023/04/14 08:16:21;;;;;;;9.43;4.10;;;21.40;1.00;;;;;;4988669;28;20210;-76
2023/04/14 08:18:47;;;;;;;9.80;3.97;;;22.00;1.00;;;;;;4992706;28;20707;-76
2023/04/14 08:21:13;;;;;;;8.27;3.97;;;22.20;1.00;;;;;;5001597;28;20186;-76
2023/04/14 08:23:38;;;;;;;7.60;3.63;;;22.40;1.00;;;;;;4990737;28;20179;-75
2023/04/14 08:26:04;;;;;;;9.00;3.80;;;22.90;1.00;;;;;;4989106;28;20569;-76
2023/04/14 08:28:30;;;;;;;7.47;3.73;;;22.90;1.00;;;;;;4991981;28;20268;-76
2023/04/14 08:30:55;;;;;;;8.50;4.17;;;22.80;1.00;;;;;;4992668;28;21231;-76
2023/04/14 08:33:21;;;;;;;8.47;3.60;;;23.20;1.00;;;;;;4990895;28;20270;-76
2023/04/14 08:35:46;;;;;;;10.10;4.00;;;23.40;1.00;;;;;;4992969;28;20232;-76
2023/04/14 08:38:12;;;;;;;10.27;3.47;;;23.80;1.00;;;;;;4989927;28;20206;-75
2023/04/14 08:40:40;;;;;;;7.43;3.93;;;23.80;1.00;;;;;;4993504;28;20257;-75
2023/04/14 08:43:06;;;;;;;10.70;4.30;;;23.80;1.00;;;;;;4989949;28;20608;-76
2023/04/14 08:45:32;;;;;;;10.40;4.23;;;24.60;1.00;;;;;;4993252;28;21034;-75
2023/04/14 08:47:59;;;;;;;9.93;3.80;;;24.90;1.00;;;;;;5005710;28;20190;-76
2023/04/14 08:50:30;;;;;;;7.03;3.87;;;24.90;1.00;;;;;;4991079;28;20564;-76
2023/04/14 08:53:01;;;;;;;8.40;3.80;;;24.80;1.00;;;;;;4989390;28;20214;-75
2023/04/14 08:55:28;;;;;;;9.33;4.10;;;25.10;1.00;;;;;;4993185;28;20198;-75
2023/04/14 08:57:53;;;;;;;8.90;4.10;;;25.40;1.00;;;;;;4991634;28;20221;-76
2023/04/14 09:00:20;;;;;;;8.77;4.10;;;25.10;1.00;;;;;;4992814;28;20672;-75
2023/04/14 09:02:45;;;;;;;10.33;4.53;;;24.60;1.00;;;;;;4990224;28;20233;-78
2023/04/14 09:05:12;;;;;;;11.90;3.70;;;24.00;1.00;;;;;;4991096;28;20206;-76
2023/04/14 09:07:38;;;;;;;8.57;3.90;;;24.10;1.00;;;;;;4991476;28;20183;-76
2023/04/14 09:10:04;;;;;;;9.30;3.70;;;24.70;1.00;;;;;;4991085;28;20183;-76
2023/04/14 09:12:31;;;;;;;6.70;4.00;;;25.30;1.00;;;;;;4984703;28;20179;-76
2023/04/14 09:14:58;;;;;;;9.33;4.00;;;25.90;1.00;;;;;;4994349;28;20202;-77
2023/04/14 09:17:27;;;;;;;8.10;3.50;;;25.80;1.00;;;;;;4992986;28;20213;-76
2023/04/14 09:19:53;;;;;;;9.47;4.07;;;25.80;1.00;;;;;;4990815;28;20183;-76
2023/04/14 09:22:19;;;;;;;9.40;3.67;;;25.50;1.00;;;;;;4991179;28;20256;-76
2023/04/14 09:24:46;;;;;;;12.03;4.00;;;26.40;1.00;;;;;;4989769;28;20194;-77
2023/04/14 09:27:11;;;;;;;6.87;3.40;;;26.60;1.00;;;;;;4992109;28;20337;-76
2023/04/14 09:29:37;;;;;;;8.97;4.10;;;27.50;1.00;;;;;;4989863;28;20708;-77
2023/04/14 09:32:04;;;;;;;9.27;3.58;;;27.80;1.00;;;;;;5005239;28;20221;-77
2023/04/14 09:34:30;;;;;;;5.22;3.28;;;28.70;1.00;;;;;;5006502;28;20268;-77
2023/04/14 09:37:01;;;;;;;9.00;3.78;;;28.80;1.00;;;;;;4988152;28;20439;-76
2023/04/14 09:39:26;;;;;;;8.10;3.40;;;28.20;1.00;;;;;;4990303;28;20259;-75
2023/04/14 09:41:52;;;;;;;10.18;3.53;;;27.70;1.00;;;;;;4991552;28;20266;-76
2023/04/14 09:44:18;;;;;;;8.02;3.60;;;27.20;1.00;;;;;;4987563;28;20182;-76
2023/04/14 09:46:55;;;;;;;7.43;3.25;;;27.70;1.00;;;;;;4991008;28;20214;-76
2023/04/14 09:49:21;;;;;;;7.70;4.32;;;28.60;1.00;;;;;;4991644;28;20261;-74
2023/04/14 09:51:48;;;;;;;7.47;3.22;;;28.50;1.00;;;;;;5000549;28;20349;-76
2023/04/14 09:54:23;;;;;;;6.90;2.97;;;28.50;1.00;;;;;;4992114;28;20596;-77
2023/04/14 09:56:48;;;;;;;9.63;3.80;;;28.50;1.00;;;;;;4996152;28;20561;-76
2023/04/14 09:59:14;;;;;;;8.00;3.40;;;28.60;1.00;;;;;;4994561;28;20198;-76
2023/04/14 10:01:44;;;;;;;10.48;3.30;;;28.40;1.00;;;;;;4991102;28;20190;-75
2023/04/14 10:04:23;;;;;;;6.15;3.20;;;28.70;1.00;;;;;;4989007;28;20253;-77
2023/04/14 10:06:49;;;;;;;6.78;3.08;;;28.60;1.00;;;;;;4989969;28;20202;-77
2023/04/14 10:09:22;;;;;;;8.20;3.25;;;28.40;1.00;;;;;;4990482;28;20735;-77
2023/04/14 10:12:09;;;;;;;5.68;2.67;;;29.00;1.00;;;;;;4987422;28;20179;-76
2023/04/14 10:14:39;;;;;;;8.77;2.70;;;29.40;1.00;;;;;;5000264;28;20174;-76
2023/04/14 10:17:06;;;;;;;8.07;2.95;;;29.60;1.00;;;;;;4993994;28;20214;-77
2023/04/14 10:19:32;;;;;;;8.13;3.30;;;29.90;1.00;;;;;;4995225;28;20663;-76
2023/04/14 10:21:58;;;;;;;6.82;2.92;;;30.20;1.00;;;;;;4986785;28;20205;-76
2023/04/14 10:24:24;;;;;;;6.85;3.20;;;30.80;1.00;;;;;;4989057;28;20272;-77
2023/04/14 10:26:50;;;;;;;10.10;2.97;;;31.30;1.00;;;;;;4992619;28;20209;-77
2023/04/14 10:29:16;;;;;;;4.63;2.53;;;30.90;1.00;;;;;;4989348;28;20187;-77
2023/04/14 10:31:53;;;;;;;7.55;3.38;;;31.20;1.00;;;;;;4995674;28;20186;-75
2023/04/14 10:34:20;;;;;;;9.57;3.03;;;31.10;1.00;;;;;;4992563;28;20186;-76
2023/04/14 10:36:47;;;;;;;10.15;3.28;;;31.10;1.00;;;;;;4990020;28;20305;-77
2023/04/14 10:39:23;;;;;;;7.25;3.10;;;31.30;1.00;;;;;;4988951;28;20190;-77
2023/04/14 10:41:51;;;;;;;8.10;3.28;;;31.80;1.00;;;;;;4990849;28;20175;-77
2023/04/14 10:44:31;;;;;;;6.15;2.92;;;32.00;1.00;;;;;;4989139;28;20596;-77
2023/04/14 10:47:03;;;;;;;10.55;3.22;;;31.40;1.00;;;;;;4991133;28;20182;-77
2023/04/14 10:49:33;;;;;;;7.63;2.92;;;31.20;1.00;;;;;;4987385;28;20182;-78
2023/04/14 10:52:02;;;;;;;7.82;2.78;;;32.00;1.00;;;;;;4989853;28;20902;-78
2023/04/14 10:54:47;;;;;;;10.50;2.92;;;31.80;1.00;;;;;;4989858;28;20202;-78
2023/04/14 10:57:13;;;;;;;8.95;2.78;;;31.90;1.00;;;;;;4986952;28;20206;-77
2023/04/14 10:59:42;;;;;;;6.82;2.60;;;31.60;1.00;;;;;;4988596;28;20802;-76
2023/04/14 11:02:27;;;;;;;6.28;2.78;;;30.70;1.00;;;;;;4987719;28;20189;-75
2023/04/14 11:05:02;;;;;;;7.90;2.70;;;32.70;1.00;;;;;;4986337;28;20209;-76
2023/04/14 11:07:30;;;;;;;10.15;3.10;;;32.70;1.00;;;;;;4990181;28;20177;-78
2023/04/14 11:10:19;;;;;;;11.63;3.08;;;33.10;1.00;;;;;;4997169;28;20179;-78
2023/04/14 11:13:06;;;;;;;6.47;2.75;;;30.80;1.00;;;;;;4979408;28;20281;-76
2023/04/14 11:15:50;;;;;;;6.03;2.50;;;30.80;1.00;;;;;;4982155;28;20201;-77
2023/04/14 11:18:17;;;;;;;8.35;2.90;;;31.40;1.00;;;;;;4989895;28;20206;-77
2023/04/14 11:20:43;;;;;;;7.60;3.00;;;32.40;1.00;;;;;;4985213;28;20270;-76
2023/04/14 11:23:12;;;;;;;8.73;2.97;;;33.50;1.00;;;;;;4983368;28;20265;-76
2023/04/14 11:25:39;;;;;;;7.63;2.90;;;32.70;1.00;;;;;;4989000;28;20293;-76
2023/04/14 11:28:04;;;;;;;7.68;2.55;;;32.70;1.00;;;;;;4988135;28;20641;-77
2023/04/14 11:30:30;;;;;;;7.88;2.53;;;31.70;1.00;;;;;;4995644;28;20218;-76
2023/04/14 11:32:57;;;;;;;6.57;2.60;;;29.10;1.00;;;;;;4986340;28;20538;-77
2023/04/14 11:35:25;;;;;;;6.43;2.53;;;27.70;1.00;;;;;;4988514;28;20221;-75
2023/04/14 11:37:59;;;;;;;6.40;2.60;;;28.30;1.00;;;;;;4988865;28;20209;-77
2023/04/14 11:40:26;;;;;;;6.88;2.75;;;30.20;1.00;;;;;;4988057;28;20182;-76
2023/04/14 11:42:56;;;;;;;5.88;2.65;;;31.00;1.00;;;;;;4987244;28;20298;-76
2023/04/14 11:45:26;;;;;;;8.30;2.88;;;33.00;1.00;;;;;;4989449;28;20207;-77
2023/04/14 11:48:03;;;;;;;9.77;2.50;;;33.20;1.00;;;;;;4988531;28;20266;-78
2023/04/14 11:50:31;;;;;;;7.78;2.63;;;33.30;1.00;;;;;;4988376;28;20343;-78
2023/04/14 11:53:01;;;;;;;6.35;2.33;;;33.50;1.00;;;;;;4985121;28;20190;-78
2023/04/14 11:55:28;;;;;;;8.40;2.75;;;34.60;1.00;;;;;;4988982;28;20202;-78
2023/04/14 11:57:55;;;;;;;7.70;2.35;;;34.40;1.00;;;;;;4988749;28;20206;-78
2023/04/14 12:00:21;;;;;;;5.38;2.10;;;33.40;1.00;;;;;;4991692;28;20677;-77
2023/04/14 12:02:47;;;;;;;5.78;2.60;;;33.70;1.00;;;;;;4986456;28;20415;-78
2023/04/14 12:05:17;;;;;;;6.32;2.40;;;33.90;1.00;;;;;;4985953;28;20206;-76
2023/04/14 12:07:44;;;;;;;4.63;2.22;;;33.80;1.00;;;;;;4987722;28;20233;-76
2023/04/14 12:10:10;;;;;;;4.93;2.10;;;32.70;1.00;;;;;;4984549;28;20565;-78
2023/04/14 12:12:35;;;;;;;8.02;2.58;;;33.20;1.00;;;;;;4979247;28;20282;-77
2023/04/14 12:15:02;;;;;;;6.40;2.58;;;33.80;1.00;;;;;;4988286;28;20206;-77
2023/04/14 12:17:28;;;;;;;6.57;2.22;;;33.50;1.00;;;;;;4988797;28;20573;-76
2023/04/14 12:19:54;;;;;;;6.53;2.20;;;32.70;1.00;;;;;;4986532;28;20175;-76
2023/04/14 12:22:27;;;;;;;7.88;2.20;;;33.30;1.00;;;;;;4987990;28;20189;-76
2023/04/14 12:24:55;;;;;;;6.57;2.58;;;33.60;1.00;;;;;;5003426;28;20755;-78
2023/04/14 12:27:25;;;;;;;5.97;2.03;;;33.70;1.00;;;;;;4988447;28;20190;-76
2023/04/14 12:29:51;;;;;;;5.63;2.30;;;34.30;1.00;;;;;;5001905;28;20185;-76
2023/04/14 12:32:17;;;;;;;6.57;2.33;;;35.10;1.00;;;;;;4989727;28;20194;-76
2023/04/14 12:34:56;;;;;;;6.22;2.45;;;36.50;1.00;;;;;;4988676;28;20186;-76
2023/04/14 12:37:26;;;;;;;6.28;2.22;;;36.60;1.00;;;;;;4989610;28;20325;-77
2023/04/14 12:39:56;;;;;;;6.68;2.17;;;36.50;1.00;;;;;;4986773;28;20550;-76
2023/04/14 12:42:22;;;;;;;7.07;2.30;;;35.70;1.00;;;;;;4987705;28;20646;-77
2023/04/14 12:44:56;;;;;;;10.02;2.55;;;31.90;1.00;;;;;;4987517;28;20210;-76
2023/04/14 12:47:33;;;;;;;9.25;2.67;;;28.10;1.00;;;;;;4987832;28;20185;-76
2023/04/14 12:50:01;;;;;;;6.23;2.33;;;24.90;1.00;;;;;;4987009;28;20186;-75
2023/04/14 12:52:37;;;;;;;7.93;2.70;;;25.60;1.00;;;;;;4988575;28;20197;-76
2023/04/14 12:55:05;;;;;;;7.47;2.07;;;29.10;1.00;;;;;;5003958;28;20297;-76
2023/04/14 12:57:32;;;;;;;5.03;2.10;;;29.30;1.00;;;;;;4986427;28;20692;-76
2023/04/14 12:59:59;;;;;;;7.75;2.30;;;30.30;1.00;;;;;;4989310;28;20261;-76
2023/04/14 13:02:29;;;;;;;5.40;2.33;;;31.40;1.00;;;;;;4983250;28;20279;-76
2023/04/14 13:04:55;;;;;;;5.68;2.33;;;32.70;1.00;;;;;;4992361;28;20194;-75